sensor_id;sensor_type;location;lat;lon;timestamp;temperature;humidity
54614;DHT22;40514;52.758;6.360;2022-09-27T00:01:19;11.20;99.90
54614;DHT22;40514;52.758;6.360;2022-09-27T00:03:45;11.20;99.90
54614;DHT22;40514;52.758;6.360;2022-09-27T00:08:36;11.10;99.90
54614;DHT22;40514;52.758;6.360;2022-09-27T00:11:06;11.10;99.90
54614;DHT22;40514;52.758;6.360;2022-09-27T00:13:33;11.00;99.90
54614;DHT22;40514;52.758;6.360;2022-09-27T00:15:59;11.00;99.90
54614;DHT22;40514;52.758;6.360;2022-09-27T00:18:25;11.00;99.90
54614;DHT22;40514;52.758;6.360;2022-09-27T00:20:51;10.90;99.90
54614;DHT22;40514;52.758;6.360;2022-09-27T00:23:16;10.90;99.90
54614;DHT22;40514;52.758;6.360;2022-09-27T00:25:42;10.90;99.90
54614;DHT22;40514;52.758;6.360;2022-09-27T00:28:07;10.90;99.90
54614;DHT22;40514;52.758;6.360;2022-09-27T00:30:33;10.80;99.90
54614;DHT22;40514;52.758;6.360;2022-09-27T00:32:59;10.80;99.90
54614;DHT22;40514;52.758;6.360;2022-09-27T00:35:24;10.80;99.90
54614;DHT22;40514;52.758;6.360;2022-09-27T00:37:50;10.80;99.90
54614;DHT22;40514;52.758;6.360;2022-09-27T00:40:15;10.80;99.90
54614;DHT22;40514;52.758;6.360;2022-09-27T00:42:41;10.80;99.90
54614;DHT22;40514;52.758;6.360;2022-09-27T00:45:11;10.80;99.90
54614;DHT22;40514;52.758;6.360;2022-09-27T00:47:46;10.90;99.90
54614;DHT22;40514;52.758;6.360;2022-09-27T00:52:59;10.90;99.90
54614;DHT22;40514;52.758;6.360;2022-09-27T00:55:43;10.90;99.90
54614;DHT22;40514;52.758;6.360;2022-09-27T00:58:09;10.90;99.90
54614;DHT22;40514;52.758;6.360;2022-09-27T01:00:37;11.00;99.90
54614;DHT22;40514;52.758;6.360;2022-09-27T01:03:03;11.00;99.90
54614;DHT22;40514;52.758;6.360;2022-09-27T01:05:30;11.00;99.90
54614;DHT22;40514;52.758;6.360;2022-09-27T01:07:55;11.00;99.90
54614;DHT22;40514;52.758;6.360;2022-09-27T01:10:24;11.00;99.90
54614;DHT22;40514;52.758;6.360;2022-09-27T01:20:35;11.10;99.90
54614;DHT22;40514;52.758;6.360;2022-09-27T01:23:22;11.10;99.90
54614;DHT22;40514;52.758;6.360;2022-09-27T01:28:32;11.00;99.90
54614;DHT22;40514;52.758;6.360;2022-09-27T01:31:08;11.00;99.90
54614;DHT22;40514;52.758;6.360;2022-09-27T01:36:06;10.90;99.90
54614;DHT22;40514;52.758;6.360;2022-09-27T01:38:44;10.80;99.90
54614;DHT22;40514;52.758;6.360;2022-09-27T01:44:02;10.70;99.90
54614;DHT22;40514;52.758;6.360;2022-09-27T01:46:31;10.70;99.90
54614;DHT22;40514;52.758;6.360;2022-09-27T01:48:58;10.70;99.90
54614;DHT22;40514;52.758;6.360;2022-09-27T01:51:30;10.70;99.90
54614;DHT22;40514;52.758;6.360;2022-09-27T01:53:57;10.70;99.90
54614;DHT22;40514;52.758;6.360;2022-09-27T01:56:26;10.70;99.90
54614;DHT22;40514;52.758;6.360;2022-09-27T01:59:01;10.60;99.90
54614;DHT22;40514;52.758;6.360;2022-09-27T02:01:28;10.70;99.90
54614;DHT22;40514;52.758;6.360;2022-09-27T02:03:54;10.60;99.90
54614;DHT22;40514;52.758;6.360;2022-09-27T02:06:25;10.60;99.90
54614;DHT22;40514;52.758;6.360;2022-09-27T02:09:00;10.60;99.90
54614;DHT22;40514;52.758;6.360;2022-09-27T02:11:27;10.60;99.90
54614;DHT22;40514;52.758;6.360;2022-09-27T02:13:54;10.60;99.90
54614;DHT22;40514;52.758;6.360;2022-09-27T02:16:25;10.60;99.90
54614;DHT22;40514;52.758;6.360;2022-09-27T02:21:18;10.60;99.90
54614;DHT22;40514;52.758;6.360;2022-09-27T02:23:46;10.70;99.90
54614;DHT22;40514;52.758;6.360;2022-09-27T02:26:24;10.80;99.90
54614;DHT22;40514;52.758;6.360;2022-09-27T02:28:55;10.80;99.90
54614;DHT22;40514;52.758;6.360;2022-09-27T02:31:22;10.80;99.90
54614;DHT22;40514;52.758;6.360;2022-09-27T02:33:55;10.80;99.90
54614;DHT22;40514;52.758;6.360;2022-09-27T02:36:22;10.80;99.90
54614;DHT22;40514;52.758;6.360;2022-09-27T02:38:47;10.90;99.90
54614;DHT22;40514;52.758;6.360;2022-09-27T02:41:14;10.90;99.90
54614;DHT22;40514;52.758;6.360;2022-09-27T02:43:39;10.90;99.90
54614;DHT22;40514;52.758;6.360;2022-09-27T02:48:35;10.90;99.90
54614;DHT22;40514;52.758;6.360;2022-09-27T02:56:02;10.90;99.90
54614;DHT22;40514;52.758;6.360;2022-09-27T02:58:58;10.90;99.90
54614;DHT22;40514;52.758;6.360;2022-09-27T03:01:37;10.80;99.90
54614;DHT22;40514;52.758;6.360;2022-09-27T03:04:09;10.80;99.90
54614;DHT22;40514;52.758;6.360;2022-09-27T03:06:36;10.80;99.90
54614;DHT22;40514;52.758;6.360;2022-09-27T03:09:02;10.80;99.90
54614;DHT22;40514;52.758;6.360;2022-09-27T03:11:28;10.80;99.90
54614;DHT22;40514;52.758;6.360;2022-09-27T03:13:53;10.80;99.90
54614;DHT22;40514;52.758;6.360;2022-09-27T03:16:19;10.70;99.90
54614;DHT22;40514;52.758;6.360;2022-09-27T03:18:44;10.80;99.90
54614;DHT22;40514;52.758;6.360;2022-09-27T03:21:10;10.70;99.90
54614;DHT22;40514;52.758;6.360;2022-09-27T03:23:35;10.70;99.90
54614;DHT22;40514;52.758;6.360;2022-09-27T03:26:01;10.70;99.90
54614;DHT22;40514;52.758;6.360;2022-09-27T03:28:26;10.70;99.90
54614;DHT22;40514;52.758;6.360;2022-09-27T03:30:54;10.70;99.90
54614;DHT22;40514;52.758;6.360;2022-09-27T03:33:19;11.70;99.90
54614;DHT22;40514;52.758;6.360;2022-09-27T03:35:45;10.70;99.90
54614;DHT22;40514;52.758;6.360;2022-09-27T03:38:10;10.60;99.90
54614;DHT22;40514;52.758;6.360;2022-09-27T03:40:36;10.60;99.90
54614;DHT22;40514;52.758;6.360;2022-09-27T03:43:02;10.60;99.90
54614;DHT22;40514;52.758;6.360;2022-09-27T03:45:27;10.50;99.90
54614;DHT22;40514;52.758;6.360;2022-09-27T03:47:53;10.50;99.90
54614;DHT22;40514;52.758;6.360;2022-09-27T03:50:19;10.50;99.90
54614;DHT22;40514;52.758;6.360;2022-09-27T03:52:45;10.60;99.90
54614;DHT22;40514;52.758;6.360;2022-09-27T03:55:10;10.60;99.90
54614;DHT22;40514;52.758;6.360;2022-09-27T03:57:36;10.60;99.90
54614;DHT22;40514;52.758;6.360;2022-09-27T04:00:03;10.60;99.90
54614;DHT22;40514;52.758;6.360;2022-09-27T04:02:29;10.60;99.90
54614;DHT22;40514;52.758;6.360;2022-09-27T04:04:55;10.60;99.90
54614;DHT22;40514;52.758;6.360;2022-09-27T04:07:20;10.60;99.90
54614;DHT22;40514;52.758;6.360;2022-09-27T04:09:46;10.50;99.90
54614;DHT22;40514;52.758;6.360;2022-09-27T04:12:12;10.50;99.90
54614;DHT22;40514;52.758;6.360;2022-09-27T04:14:37;10.50;99.90
54614;DHT22;40514;52.758;6.360;2022-09-27T04:17:03;10.50;99.90
54614;DHT22;40514;52.758;6.360;2022-09-27T04:19:28;10.50;99.90
54614;DHT22;40514;52.758;6.360;2022-09-27T04:21:54;10.40;99.90
54614;DHT22;40514;52.758;6.360;2022-09-27T04:24:19;10.40;99.90
54614;DHT22;40514;52.758;6.360;2022-09-27T04:26:45;10.60;99.90
54614;DHT22;40514;52.758;6.360;2022-09-27T04:29:11;10.40;99.90
54614;DHT22;40514;52.758;6.360;2022-09-27T04:31:36;10.40;99.90
54614;DHT22;40514;52.758;6.360;2022-09-27T04:34:03;10.40;99.90
54614;DHT22;40514;52.758;6.360;2022-09-27T04:36:29;10.30;99.90
54614;DHT22;40514;52.758;6.360;2022-09-27T04:38:58;10.30;99.90
54614;DHT22;40514;52.758;6.360;2022-09-27T04:41:25;10.20;99.90
54614;DHT22;40514;52.758;6.360;2022-09-27T04:43:51;10.20;99.90
54614;DHT22;40514;52.758;6.360;2022-09-27T04:46:16;10.20;99.90
54614;DHT22;40514;52.758;6.360;2022-09-27T04:48:42;10.20;99.90
54614;DHT22;40514;52.758;6.360;2022-09-27T04:51:07;10.20;99.90
54614;DHT22;40514;52.758;6.360;2022-09-27T04:53:33;10.20;99.90
54614;DHT22;40514;52.758;6.360;2022-09-27T04:55:59;10.10;99.90
54614;DHT22;40514;52.758;6.360;2022-09-27T04:58:26;10.10;99.90
54614;DHT22;40514;52.758;6.360;2022-09-27T05:00:53;10.10;99.90
54614;DHT22;40514;52.758;6.360;2022-09-27T05:03:20;10.10;99.90
54614;DHT22;40514;52.758;6.360;2022-09-27T05:05:46;11.00;99.90
54614;DHT22;40514;52.758;6.360;2022-09-27T05:08:14;9.90;99.90
54614;DHT22;40514;52.758;6.360;2022-09-27T05:10:40;10.00;99.90
54614;DHT22;40514;52.758;6.360;2022-09-27T05:13:05;10.00;99.90
54614;DHT22;40514;52.758;6.360;2022-09-27T05:15:31;9.90;99.90
54614;DHT22;40514;52.758;6.360;2022-09-27T05:17:56;9.90;99.90
54614;DHT22;40514;52.758;6.360;2022-09-27T05:20:23;9.80;99.90
54614;DHT22;40514;52.758;6.360;2022-09-27T05:22:50;9.90;99.90
54614;DHT22;40514;52.758;6.360;2022-09-27T05:25:15;9.80;99.90
54614;DHT22;40514;52.758;6.360;2022-09-27T05:27:41;9.80;99.90
54614;DHT22;40514;52.758;6.360;2022-09-27T05:30:06;9.80;99.90
54614;DHT22;40514;52.758;6.360;2022-09-27T05:32:32;9.80;99.90
54614;DHT22;40514;52.758;6.360;2022-09-27T05:34:58;9.80;99.90
54614;DHT22;40514;52.758;6.360;2022-09-27T05:37:24;9.80;99.90
54614;DHT22;40514;52.758;6.360;2022-09-27T05:39:49;9.80;99.90
54614;DHT22;40514;52.758;6.360;2022-09-27T05:42:15;9.80;99.90
54614;DHT22;40514;52.758;6.360;2022-09-27T05:44:41;9.70;99.90
54614;DHT22;40514;52.758;6.360;2022-09-27T05:47:06;9.70;99.90
54614;DHT22;40514;52.758;6.360;2022-09-27T05:49:32;9.70;99.90
54614;DHT22;40514;52.758;6.360;2022-09-27T05:51:57;9.70;99.90
54614;DHT22;40514;52.758;6.360;2022-09-27T05:54:23;9.70;99.90
54614;DHT22;40514;52.758;6.360;2022-09-27T05:56:49;9.70;99.90
54614;DHT22;40514;52.758;6.360;2022-09-27T05:59:15;9.80;99.90
54614;DHT22;40514;52.758;6.360;2022-09-27T06:01:41;9.80;99.90
54614;DHT22;40514;52.758;6.360;2022-09-27T06:04:06;9.80;99.90
54614;DHT22;40514;52.758;6.360;2022-09-27T06:06:34;9.90;99.90
54614;DHT22;40514;52.758;6.360;2022-09-27T06:09:00;9.80;99.90
54614;DHT22;40514;52.758;6.360;2022-09-27T06:11:26;9.90;99.90
54614;DHT22;40514;52.758;6.360;2022-09-27T06:13:52;9.90;99.90
54614;DHT22;40514;52.758;6.360;2022-09-27T06:16:18;9.90;99.90
54614;DHT22;40514;52.758;6.360;2022-09-27T06:18:43;10.00;99.90
54614;DHT22;40514;52.758;6.360;2022-09-27T06:21:09;10.00;99.90
54614;DHT22;40514;52.758;6.360;2022-09-27T06:23:34;10.00;99.90
54614;DHT22;40514;52.758;6.360;2022-09-27T06:26:03;10.00;99.90
54614;DHT22;40514;52.758;6.360;2022-09-27T06:28:30;10.00;99.90
54614;DHT22;40514;52.758;6.360;2022-09-27T06:30:55;10.10;99.90
54614;DHT22;40514;52.758;6.360;2022-09-27T06:33:21;10.00;99.90
54614;DHT22;40514;52.758;6.360;2022-09-27T06:35:47;10.10;99.90
54614;DHT22;40514;52.758;6.360;2022-09-27T06:38:14;10.10;99.90
54614;DHT22;40514;52.758;6.360;2022-09-27T06:40:43;10.10;99.90
54614;DHT22;40514;52.758;6.360;2022-09-27T06:43:10;10.10;99.90
54614;DHT22;40514;52.758;6.360;2022-09-27T06:45:36;10.10;99.90
54614;DHT22;40514;52.758;6.360;2022-09-27T06:48:03;10.10;99.90
54614;DHT22;40514;52.758;6.360;2022-09-27T06:50:29;10.10;99.90
54614;DHT22;40514;52.758;6.360;2022-09-27T06:52:54;10.20;99.90
54614;DHT22;40514;52.758;6.360;2022-09-27T06:55:20;10.20;99.90
54614;DHT22;40514;52.758;6.360;2022-09-27T06:57:46;10.20;99.90
54614;DHT22;40514;52.758;6.360;2022-09-27T07:00:30;10.20;99.90
54614;DHT22;40514;52.758;6.360;2022-09-27T07:02:56;10.30;99.90
54614;DHT22;40514;52.758;6.360;2022-09-27T07:05:26;10.30;99.90
54614;DHT22;40514;52.758;6.360;2022-09-27T07:07:52;10.30;99.90
54614;DHT22;40514;52.758;6.360;2022-09-27T07:10:20;10.50;99.90
54614;DHT22;40514;52.758;6.360;2022-09-27T07:12:46;10.60;99.90
54614;DHT22;40514;52.758;6.360;2022-09-27T07:15:13;10.80;99.90
54614;DHT22;40514;52.758;6.360;2022-09-27T07:17:38;11.00;99.90
54614;DHT22;40514;52.758;6.360;2022-09-27T07:20:04;11.20;99.90
54614;DHT22;40514;52.758;6.360;2022-09-27T07:22:29;11.30;99.90
54614;DHT22;40514;52.758;6.360;2022-09-27T07:24:55;11.40;99.90
54614;DHT22;40514;52.758;6.360;2022-09-27T07:27:20;11.40;99.90
54614;DHT22;40514;52.758;6.360;2022-09-27T07:29:46;11.60;99.90
54614;DHT22;40514;52.758;6.360;2022-09-27T07:32:12;11.70;99.90
54614;DHT22;40514;52.758;6.360;2022-09-27T07:34:37;11.90;99.90
54614;DHT22;40514;52.758;6.360;2022-09-27T07:37:03;12.10;99.90
54614;DHT22;40514;52.758;6.360;2022-09-27T07:39:30;12.20;99.90
54614;DHT22;40514;52.758;6.360;2022-09-27T07:41:57;12.10;99.90
54614;DHT22;40514;52.758;6.360;2022-09-27T07:44:22;12.10;99.90
54614;DHT22;40514;52.758;6.360;2022-09-27T07:46:48;12.10;99.90
54614;DHT22;40514;52.758;6.360;2022-09-27T07:49:14;12.20;99.90
54614;DHT22;40514;52.758;6.360;2022-09-27T07:51:39;12.30;99.90
54614;DHT22;40514;52.758;6.360;2022-09-27T07:54:05;12.50;99.90
54614;DHT22;40514;52.758;6.360;2022-09-27T07:56:30;12.70;99.90
54614;DHT22;40514;52.758;6.360;2022-09-27T07:58:56;12.80;99.90
54614;DHT22;40514;52.758;6.360;2022-09-27T08:01:22;12.90;99.90
54614;DHT22;40514;52.758;6.360;2022-09-27T08:03:48;13.00;99.90
54614;DHT22;40514;52.758;6.360;2022-09-27T08:06:13;13.10;99.90
54614;DHT22;40514;52.758;6.360;2022-09-27T08:08:39;13.30;99.90
54614;DHT22;40514;52.758;6.360;2022-09-27T08:11:11;13.40;99.90
54614;DHT22;40514;52.758;6.360;2022-09-27T08:13:41;13.50;99.90
54614;DHT22;40514;52.758;6.360;2022-09-27T08:16:06;13.70;99.90
54614;DHT22;40514;52.758;6.360;2022-09-27T08:18:32;13.90;99.90
54614;DHT22;40514;52.758;6.360;2022-09-27T08:20:58;14.10;99.90
54614;DHT22;40514;52.758;6.360;2022-09-27T08:23:24;14.30;99.90
54614;DHT22;40514;52.758;6.360;2022-09-27T08:25:53;14.40;99.90
54614;DHT22;40514;52.758;6.360;2022-09-27T08:28:18;14.40;99.90
54614;DHT22;40514;52.758;6.360;2022-09-27T08:30:44;14.20;99.90
54614;DHT22;40514;52.758;6.360;2022-09-27T08:33:09;14.00;99.90
54614;DHT22;40514;52.758;6.360;2022-09-27T08:35:35;13.80;99.90
54614;DHT22;40514;52.758;6.360;2022-09-27T08:38:01;13.70;99.90
54614;DHT22;40514;52.758;6.360;2022-09-27T08:43:13;13.50;99.90
54614;DHT22;40514;52.758;6.360;2022-09-27T08:45:54;13.30;99.90
54614;DHT22;40514;52.758;6.360;2022-09-27T08:48:23;13.30;99.90
54614;DHT22;40514;52.758;6.360;2022-09-27T08:50:50;13.40;99.90
54614;DHT22;40514;52.758;6.360;2022-09-27T08:53:18;13.50;99.90
54614;DHT22;40514;52.758;6.360;2022-09-27T08:55:51;13.70;99.90
54614;DHT22;40514;52.758;6.360;2022-09-27T09:00:55;14.40;99.90
54614;DHT22;40514;52.758;6.360;2022-09-27T09:03:28;14.70;99.90
54614;DHT22;40514;52.758;6.360;2022-09-27T09:08:29;14.70;99.90
54614;DHT22;40514;52.758;6.360;2022-09-27T09:14:13;13.70;99.90
54614;DHT22;40514;52.758;6.360;2022-09-27T09:35:09;12.60;99.90
54614;DHT22;40514;52.758;6.360;2022-09-27T09:37:40;12.60;99.90
54614;DHT22;40514;52.758;6.360;2022-09-27T09:45:32;12.50;99.90
54614;DHT22;40514;52.758;6.360;2022-09-27T09:50:41;12.40;99.90
54614;DHT22;40514;52.758;6.360;2022-09-27T09:53:15;12.30;99.90
54614;DHT22;40514;52.758;6.360;2022-09-27T09:55:42;12.30;99.90
54614;DHT22;40514;52.758;6.360;2022-09-27T09:58:20;12.40;99.90
54614;DHT22;40514;52.758;6.360;2022-09-27T10:00:48;12.50;99.90
54614;DHT22;40514;52.758;6.360;2022-09-27T10:03:15;12.70;99.90
54614;DHT22;40514;52.758;6.360;2022-09-27T10:05:41;13.10;99.90
54614;DHT22;40514;52.758;6.360;2022-09-27T10:08:10;13.90;99.90
54614;DHT22;40514;52.758;6.360;2022-09-27T10:10:37;15.20;99.90
54614;DHT22;40514;52.758;6.360;2022-09-27T10:13:02;15.90;99.90
54614;DHT22;40514;52.758;6.360;2022-09-27T10:15:28;16.60;99.90
54614;DHT22;40514;52.758;6.360;2022-09-27T10:17:55;16.90;99.90
54614;DHT22;40514;52.758;6.360;2022-09-27T10:20:29;16.80;99.90
54614;DHT22;40514;52.758;6.360;2022-09-27T10:23:03;16.40;99.90
54614;DHT22;40514;52.758;6.360;2022-09-27T10:25:44;16.10;99.90
54614;DHT22;40514;52.758;6.360;2022-09-27T10:28:10;15.80;99.90
54614;DHT22;40514;52.758;6.360;2022-09-27T10:30:53;15.80;99.90
54614;DHT22;40514;52.758;6.360;2022-09-27T10:33:19;15.80;99.90
54614;DHT22;40514;52.758;6.360;2022-09-27T10:35:45;15.80;99.90
54614;DHT22;40514;52.758;6.360;2022-09-27T10:38:19;15.80;99.90
54614;DHT22;40514;52.758;6.360;2022-09-27T10:40:46;16.00;99.90
54614;DHT22;40514;52.758;6.360;2022-09-27T10:43:32;16.00;99.90
54614;DHT22;40514;52.758;6.360;2022-09-27T10:45:59;15.80;99.90
54614;DHT22;40514;52.758;6.360;2022-09-27T10:48:26;15.30;99.90
54614;DHT22;40514;52.758;6.360;2022-09-27T10:50:54;14.80;99.90
54614;DHT22;40514;52.758;6.360;2022-09-27T10:53:20;14.50;99.90
54614;DHT22;40514;52.758;6.360;2022-09-27T10:55:47;14.20;99.90
54614;DHT22;40514;52.758;6.360;2022-09-27T10:58:23;14.00;99.90
54614;DHT22;40514;52.758;6.360;2022-09-27T11:00:53;13.80;99.90
54614;DHT22;40514;52.758;6.360;2022-09-27T11:03:19;13.60;99.90
54614;DHT22;40514;52.758;6.360;2022-09-27T11:05:45;13.50;99.90
54614;DHT22;40514;52.758;6.360;2022-09-27T11:08:21;13.40;99.90
54614;DHT22;40514;52.758;6.360;2022-09-27T11:13:32;13.20;99.90
54614;DHT22;40514;52.758;6.360;2022-09-27T11:18:29;13.00;99.90
54614;DHT22;40514;52.758;6.360;2022-09-27T11:21:00;12.90;99.90
54614;DHT22;40514;52.758;6.360;2022-09-27T11:23:31;12.90;99.90
54614;DHT22;40514;52.758;6.360;2022-09-27T11:26:18;13.10;99.90
54614;DHT22;40514;52.758;6.360;2022-09-27T11:28:56;13.40;99.90
54614;DHT22;40514;52.758;6.360;2022-09-27T11:31:41;13.70;99.90
54614;DHT22;40514;52.758;6.360;2022-09-27T11:34:16;14.10;99.90
54614;DHT22;40514;52.758;6.360;2022-09-27T11:39:22;15.10;99.90
54614;DHT22;40514;52.758;6.360;2022-09-27T11:41:52;15.40;99.90
54614;DHT22;40514;52.758;6.360;2022-09-27T11:44:31;15.50;99.90
54614;DHT22;40514;52.758;6.360;2022-09-27T11:47:11;15.70;99.90
54614;DHT22;40514;52.758;6.360;2022-09-27T11:49:57;15.70;99.90
54614;DHT22;40514;52.758;6.360;2022-09-27T11:52:31;15.70;99.90
54614;DHT22;40514;52.758;6.360;2022-09-27T11:55:04;15.60;99.90
54614;DHT22;40514;52.758;6.360;2022-09-27T12:09:44;15.70;99.90
54614;DHT22;40514;52.758;6.360;2022-09-27T12:12:12;15.90;99.90
54614;DHT22;40514;52.758;6.360;2022-09-27T12:14:43;16.00;99.90
54614;DHT22;40514;52.758;6.360;2022-09-27T12:17:10;16.10;99.90
54614;DHT22;40514;52.758;6.360;2022-09-27T12:19:41;16.10;99.90
54614;DHT22;40514;52.758;6.360;2022-09-27T12:22:12;16.10;99.90
54614;DHT22;40514;52.758;6.360;2022-09-27T12:24:39;16.00;99.90
54614;DHT22;40514;52.758;6.360;2022-09-27T12:27:07;16.00;99.90
54614;DHT22;40514;52.758;6.360;2022-09-27T12:29:34;16.10;99.90
54614;DHT22;40514;52.758;6.360;2022-09-27T12:32:03;16.10;99.90
54614;DHT22;40514;52.758;6.360;2022-09-27T12:34:45;16.20;99.90
54614;DHT22;40514;52.758;6.360;2022-09-27T12:39:46;16.60;99.90
54614;DHT22;40514;52.758;6.360;2022-09-27T12:42:24;16.80;99.90
54614;DHT22;40514;52.758;6.360;2022-09-27T12:44:50;17.10;99.90
54614;DHT22;40514;52.758;6.360;2022-09-27T12:52:48;17.30;99.90
54614;DHT22;40514;52.758;6.360;2022-09-27T12:55:35;16.70;99.90
54614;DHT22;40514;52.758;6.360;2022-09-27T13:00:57;15.90;99.90
54614;DHT22;40514;52.758;6.360;2022-09-27T13:03:48;15.40;99.90
54614;DHT22;40514;52.758;6.360;2022-09-27T13:06:16;15.20;99.90
54614;DHT22;40514;52.758;6.360;2022-09-27T13:11:22;15.20;99.90
54614;DHT22;40514;52.758;6.360;2022-09-27T13:13:52;15.20;99.90
54614;DHT22;40514;52.758;6.360;2022-09-27T13:16:18;15.20;99.90
54614;DHT22;40514;52.758;6.360;2022-09-27T13:21:53;15.50;99.90
54614;DHT22;40514;52.758;6.360;2022-09-27T13:24:28;15.40;99.90
54614;DHT22;40514;52.758;6.360;2022-09-27T13:26:53;15.30;99.90
54614;DHT22;40514;52.758;6.360;2022-09-27T13:29:21;15.10;99.90
54614;DHT22;40514;52.758;6.360;2022-09-27T13:34:52;14.80;99.90
54614;DHT22;40514;52.758;6.360;2022-09-27T13:39:48;14.50;99.90
54614;DHT22;40514;52.758;6.360;2022-09-27T13:42:35;14.40;99.90
54614;DHT22;40514;52.758;6.360;2022-09-27T13:47:27;14.10;99.90
54614;DHT22;40514;52.758;6.360;2022-09-27T13:50:03;14.10;99.90
54614;DHT22;40514;52.758;6.360;2022-09-27T13:52:37;14.60;99.90
54614;DHT22;40514;52.758;6.360;2022-09-27T14:00:19;14.00;99.90
54614;DHT22;40514;52.758;6.360;2022-09-27T14:02:50;14.00;99.90
54614;DHT22;40514;52.758;6.360;2022-09-27T14:05:25;13.90;99.90
54614;DHT22;40514;52.758;6.360;2022-09-27T14:07:51;13.80;99.90
54614;DHT22;40514;52.758;6.360;2022-09-27T14:10:18;13.80;99.90
54614;DHT22;40514;52.758;6.360;2022-09-27T14:12:46;13.80;99.90
54614;DHT22;40514;52.758;6.360;2022-09-27T14:15:17;13.90;99.90
54614;DHT22;40514;52.758;6.360;2022-09-27T14:17:43;13.90;99.90
54614;DHT22;40514;52.758;6.360;2022-09-27T14:22:55;13.80;99.90
54614;DHT22;40514;52.758;6.360;2022-09-27T14:25:21;13.80;99.90
54614;DHT22;40514;52.758;6.360;2022-09-27T14:27:46;13.70;99.90
54614;DHT22;40514;52.758;6.360;2022-09-27T14:30:13;13.60;99.90
54614;DHT22;40514;52.758;6.360;2022-09-27T14:32:49;13.60;99.90
54614;DHT22;40514;52.758;6.360;2022-09-27T14:35:16;13.60;99.90
54614;DHT22;40514;52.758;6.360;2022-09-27T14:38:02;13.50;99.90
54614;DHT22;40514;52.758;6.360;2022-09-27T14:40:37;13.50;99.90
54614;DHT22;40514;52.758;6.360;2022-09-27T14:43:04;13.40;99.90
54614;DHT22;40514;52.758;6.360;2022-09-27T14:45:34;13.40;99.90
54614;DHT22;40514;52.758;6.360;2022-09-27T14:48:01;13.30;99.90
54614;DHT22;40514;52.758;6.360;2022-09-27T14:50:27;13.30;99.90
54614;DHT22;40514;52.758;6.360;2022-09-27T14:52:56;13.20;99.90
54614;DHT22;40514;52.758;6.360;2022-09-27T14:55:24;13.20;99.90
54614;DHT22;40514;52.758;6.360;2022-09-27T14:57:53;13.30;99.90
54614;DHT22;40514;52.758;6.360;2022-09-27T15:00:20;13.30;99.90
54614;DHT22;40514;52.758;6.360;2022-09-27T15:02:47;13.30;99.90
54614;DHT22;40514;52.758;6.360;2022-09-27T15:05:13;13.30;99.90
54614;DHT22;40514;52.758;6.360;2022-09-27T15:07:39;13.30;99.90
54614;DHT22;40514;52.758;6.360;2022-09-27T15:10:05;13.30;99.90
54614;DHT22;40514;52.758;6.360;2022-09-27T15:12:31;13.30;99.90
54614;DHT22;40514;52.758;6.360;2022-09-27T15:14:58;13.30;99.90
54614;DHT22;40514;52.758;6.360;2022-09-27T15:17:23;13.30;99.90
54614;DHT22;40514;52.758;6.360;2022-09-27T15:19:59;13.20;99.90
54614;DHT22;40514;52.758;6.360;2022-09-27T15:22:36;13.30;99.90
54614;DHT22;40514;52.758;6.360;2022-09-27T15:25:10;13.20;99.90
54614;DHT22;40514;52.758;6.360;2022-09-27T15:27:40;13.20;99.90
54614;DHT22;40514;52.758;6.360;2022-09-27T15:30:18;13.10;99.90
54614;DHT22;40514;52.758;6.360;2022-09-27T15:32:47;13.10;99.90
54614;DHT22;40514;52.758;6.360;2022-09-27T15:35:14;13.20;99.90
54614;DHT22;40514;52.758;6.360;2022-09-27T15:37:42;13.10;99.90
54614;DHT22;40514;52.758;6.360;2022-09-27T15:42:55;13.10;99.90
54614;DHT22;40514;52.758;6.360;2022-09-27T15:45:32;13.10;99.90
54614;DHT22;40514;52.758;6.360;2022-09-27T15:48:14;13.10;99.90
54614;DHT22;40514;52.758;6.360;2022-09-27T15:50:40;13.10;99.90
54614;DHT22;40514;52.758;6.360;2022-09-27T15:53:06;13.10;99.90
54614;DHT22;40514;52.758;6.360;2022-09-27T15:55:32;13.10;99.90
54614;DHT22;40514;52.758;6.360;2022-09-27T15:57:59;13.10;99.90
54614;DHT22;40514;52.758;6.360;2022-09-27T16:00:26;13.10;99.90
54614;DHT22;40514;52.758;6.360;2022-09-27T16:02:52;13.00;99.90
54614;DHT22;40514;52.758;6.360;2022-09-27T16:05:18;13.00;99.90
54614;DHT22;40514;52.758;6.360;2022-09-27T16:07:43;13.00;99.90
54614;DHT22;40514;52.758;6.360;2022-09-27T16:10:28;13.00;99.90
54614;DHT22;40514;52.758;6.360;2022-09-27T16:12:55;12.90;99.90
54614;DHT22;40514;52.758;6.360;2022-09-27T16:15:20;12.90;99.90
54614;DHT22;40514;52.758;6.360;2022-09-27T16:17:46;12.90;99.90
54614;DHT22;40514;52.758;6.360;2022-09-27T16:20:19;12.90;99.90
54614;DHT22;40514;52.758;6.360;2022-09-27T16:22:45;12.90;99.90
54614;DHT22;40514;52.758;6.360;2022-09-27T16:25:11;12.90;99.90
54614;DHT22;40514;52.758;6.360;2022-09-27T16:27:37;12.90;99.90
54614;DHT22;40514;52.758;6.360;2022-09-27T16:30:03;12.90;99.90
54614;DHT22;40514;52.758;6.360;2022-09-27T16:32:28;12.80;99.90
54614;DHT22;40514;52.758;6.360;2022-09-27T16:34:54;12.80;99.90
54614;DHT22;40514;52.758;6.360;2022-09-27T16:37:24;12.80;99.90
54614;DHT22;40514;52.758;6.360;2022-09-27T16:39:49;12.80;99.90
54614;DHT22;40514;52.758;6.360;2022-09-27T16:42:15;12.80;99.90
54614;DHT22;40514;52.758;6.360;2022-09-27T16:44:41;12.70;99.90
54614;DHT22;40514;52.758;6.360;2022-09-27T16:47:06;12.70;99.90
54614;DHT22;40514;52.758;6.360;2022-09-27T16:49:33;12.70;99.90
54614;DHT22;40514;52.758;6.360;2022-09-27T16:52:17;12.70;99.90
54614;DHT22;40514;52.758;6.360;2022-09-27T16:54:42;12.60;99.90
54614;DHT22;40514;52.758;6.360;2022-09-27T16:57:08;12.70;99.90
54614;DHT22;40514;52.758;6.360;2022-09-27T16:59:34;12.60;99.90
54614;DHT22;40514;52.758;6.360;2022-09-27T17:02:00;12.60;99.90
54614;DHT22;40514;52.758;6.360;2022-09-27T17:04:26;12.60;99.90
54614;DHT22;40514;52.758;6.360;2022-09-27T17:06:52;12.50;99.90
54614;DHT22;40514;52.758;6.360;2022-09-27T17:09:19;12.50;99.90
54614;DHT22;40514;52.758;6.360;2022-09-27T17:11:44;12.50;99.90
54614;DHT22;40514;52.758;6.360;2022-09-27T17:14:10;12.40;99.90
54614;DHT22;40514;52.758;6.360;2022-09-27T17:16:38;12.40;99.90
54614;DHT22;40514;52.758;6.360;2022-09-27T17:19:04;12.40;99.90
54614;DHT22;40514;52.758;6.360;2022-09-27T17:21:29;12.30;99.90
54614;DHT22;40514;52.758;6.360;2022-09-27T17:23:55;12.20;99.90
54614;DHT22;40514;52.758;6.360;2022-09-27T17:26:21;12.20;99.90
54614;DHT22;40514;52.758;6.360;2022-09-27T17:28:47;12.20;99.90
54614;DHT22;40514;52.758;6.360;2022-09-27T17:31:13;12.10;99.90
54614;DHT22;40514;52.758;6.360;2022-09-27T17:33:40;12.10;99.90
54614;DHT22;40514;52.758;6.360;2022-09-27T17:36:18;12.00;99.90
54614;DHT22;40514;52.758;6.360;2022-09-27T17:38:45;12.00;99.90
54614;DHT22;40514;52.758;6.360;2022-09-27T17:41:12;12.00;99.90
54614;DHT22;40514;52.758;6.360;2022-09-27T17:43:37;12.00;99.90